• Join FlightAware (Why Join?)
  • Login
  • US Flag 
08:59PM EDT


 

Airport Tracker/Info


-or-


 

Live Flight TrackerFlight Track Log ✈ EJM40 ✈ 26-Jun-2013 ✈ KOPF - KTEB

Flight Track Log - Related Links

Times and Time Zones

All times are in EDT time to prevent confusion due to time zone crossing. See the EJM40 flight status page for this flight to view local times or setup timezone preferences in your user account.

Time Position Orientation Groundspeed Altitude Reporting Facility
EDT Latitude Longitude Course Direction KTS MPH feet Rate Location/Type
04:51PM 25.9089 -80.2706 83° East 131 151 300  Level Miami Center
04:53PM 25.9194 -80.1764 83° East 223 257 2,000 720 Climbing Miami Center
04:54PM 25.9269 -80.1233 81° East 201 231 2,100 960 Climbing Miami Center
04:55PM 25.9347 -80.0519 83° East 252 290 3,900 1,560 Climbing Miami Center
04:56PM 25.9428 -79.9689 84° East 265 305 5,500 2,340 Climbing Miami Center
04:57PM 25.9261 -79.8739 101° East 288 331 9,000 2,580 Climbing Miami Center
04:58PM 25.9694 -79.7894 60° Northeast 305 351 11,100 1,920 Climbing Miami Center
04:59PM 26.0256 -79.6983 56° Northeast 332 382 13,000 2,100 Climbing Miami Center
05:00PM 26.0858 -79.6025 55° Northeast 354 407 15,300 2,220 Climbing Miami Center
05:01PM 26.1483 -79.5022 55° Northeast 376 433 17,500 1,920 Climbing Miami Center
05:02PM 26.2147 -79.4064 52° Northeast 387 445 19,200 1,680 Climbing Miami Center
05:03PM 26.3161 -79.3436 29° Northeast 392 451 20,900 1,740 Climbing Miami Center
05:04PM 26.4339 -79.3044 17° North 415 478 22,700 1,560 Climbing Miami Center
05:05PM 26.5472 -79.2603 19° North 433 498 24,100 1,620 Climbing Miami Center
05:06PM 26.6650 -79.2208 17° North 433 498 26,000 1,860 Climbing Miami Center
05:07PM 26.7825 -79.1792 18° North 439 505 27,900 1,800 Climbing Miami Center
05:08PM 26.8981 -79.1372 18° North 444 511 29,700 1,800 Climbing Miami Center
05:09PM 27.0158 -79.0928 19° North 444 511 31,600 1,980 Climbing Miami Center
05:10PM 27.1292 -79.0528 17° North 438 504 33,700 2,040 Climbing Miami Center
05:11PM 27.2300 -79.0150 18° North 424 488 35,700 1,980 Climbing Miami Center
05:12PM 27.3392 -78.9750 18° North 416 479 37,700 1,620 Climbing Miami Center
05:13PM 27.4503 -78.9444 14° North 386 444 39,000 780 Climbing Miami Center
05:14PM 27.5633 -78.9253 North 391 450 39,300 720 Climbing Miami Center
05:15PM 27.6806 -78.9108 North 414 476 40,500 1,140 Climbing Miami Center
05:16PM 27.7872 -78.8964 North 419 482 41,600 1,200 Climbing Miami Center
05:17PM 27.9003 -78.8772 North 419 482 42,900 1,020 Climbing Miami Center
05:18PM 28.0131 -78.8628 North 409 471 43,700 660 Climbing Miami Center
05:19PM 28.1281 -78.8483 North 409 471 44,300 600 Climbing Miami Center
05:20PM 28.2475 -78.8317 North 409 471 44,900 300 Climbing Miami Center
05:21PM 28.3686 -78.8125 North 420 483 45,000  Climbing Miami Center
05:22PM 28.4858 -78.7956 North 428 493 45,000  Level Miami Center
05:23PM 28.6092 -78.7789 North 433 498 45,000  Level Miami Center
05:24PM 28.7389 -78.7644 North 443 510 45,000  Level Miami Center
05:25PM 28.8642 -78.7431 North 448 516 45,000 -60 Level Miami Center
05:26PM 28.9897 -78.7261 North 448 516 44,900  Descending Miami Center
05:27PM 29.1108 -78.7092 North 448 516 45,000  Climbing Miami Center
05:28PM 29.2342 -78.6922 North 442 509 45,000  Level Miami Center
05:29PM 29.3658 -78.6753 North 449 517 45,000  Level Miami Center
05:30PM 29.4831 -78.6533 North 450 518 45,000  Level Miami Center
05:31PM 29.6125 -78.6414 North 445 512 45,000  Level Miami Center
05:32PM 29.7272 -78.6167 11° North 445 512 45,000  Level Jacksonville Center
05:33PM 29.8542 -78.6014 North 417 480 45,000  Level Jacksonville Center
05:34PM 29.9767 -78.5842 North 450 518 45,000 -60 Level Jacksonville Center
05:35PM 30.0992 -78.5642 North 439 505 44,900  Descending Jacksonville Center
05:36PM 30.2219 -78.5514 North 439 505 45,000  Climbing Jacksonville Center
05:37PM 30.3339 -78.5319 North 445 512 45,000  Level Jacksonville Center
05:38PM 30.4586 -78.5142 North 445 512 45,000  Level Jacksonville Center
05:39PM 30.5850 -78.4939 North 445 512 45,000  Level Jacksonville Center
05:40PM 30.7056 -78.4739 North 445 512 45,000  Level Jacksonville Center
05:41PM 30.8322 -78.4533 North 446 513 45,000  Level Jacksonville Center
05:42PM 30.9567 -78.4331 North 451 519 45,000  Level Jacksonville Center
05:43PM 31.0956 -78.4094 North 450 518 45,000  Level Jacksonville Center
05:44PM 31.2142 -78.3967 North 433 498 45,000  Level Jacksonville Center
05:45PM 31.3406 -78.3711 10° North 458 527 45,000  Level Jacksonville Center
05:46PM 31.4631 -78.3506 North 442 509 45,000  Level Jacksonville Center
05:47PM 31.5772 -78.3328 North 432 497 45,000  Level Jacksonville Center
05:48PM 31.6997 -78.3119 North 427 491 45,000  Level Jacksonville Center
05:49PM 31.8200 -78.2914 North 432 497 45,000  Level Jacksonville Center
05:50PM 31.9381 -78.2708 North 432 497 45,000  Level Jacksonville Center
05:51PM 32.0586 -78.2525 North 421 484 45,000  Level Jacksonville Center
05:52PM 32.1642 -78.2300 10° North 427 491 45,000  Level Jacksonville Center
05:53PM 32.2825 -78.2142 North 427 491 45,000  Level Jacksonville Center
05:54PM 32.3986 -78.1908 10° North 422 486 45,000  Level Jacksonville Center
05:55PM 32.5208 -78.1697 North 427 491 45,000  Level Jacksonville Center
05:56PM 32.6414 -78.1561 North 427 491 45,000  Level Jacksonville Center
05:57PM 32.7619 -78.1375 North 427 491 45,000  Level Jacksonville Center
05:58PM 32.8800 -78.1139 10° North 427 491 45,000  Level Jacksonville Center
05:59PM 32.9983 -78.0978 North 422 486 45,000  Level Jacksonville Center
06:00PM 33.1164 -78.0789 North 422 486 45,000  Level Jacksonville Center
06:02PM 33.3019 -78.0414 10° North 420 483 45,000  Level Washington Center
06:03PM 33.4192 -78.0247 North 420 483 45,000  Level Washington Center
06:04PM 33.5383 -78.0108 North 425 489 45,000  Level Washington Center
06:05PM 33.6533 -77.9917 North 430 495 45,000  Level Washington Center
06:06PM 33.7706 -77.9725 North 424 488 45,000  Level Washington Center
06:07PM 33.8900 -77.9508 North 414 476 45,000  Level Washington Center
06:08PM 34.0050 -77.9317 North 419 482 45,000  Level Washington Center
06:09PM 34.1203 -77.9122 North 419 482 45,000  Level Washington Center
06:10PM 34.2353 -77.8956 North 419 482 45,000  Level Washington Center
06:11PM 34.3500 -77.8911 North 434 499 45,000  Level Washington Center
06:12PM 34.4669 -77.8894 North 434 499 45,000  Level Washington Center
06:13PM 34.5817 -77.8850 North 421 484 45,000  Level Washington Center
06:14PM 34.6964 -77.8858 360° North 415 478 45,000  Level Washington Center
06:15PM 34.8133 -77.8814 North 415 478 45,000  Level Washington Center
06:16PM 34.9369 -77.8519 11° North 409 471 45,000  Level Washington Center
06:17PM 35.0483 -77.8119 16° North 409 471 45,000  Level Washington Center
06:18PM 35.1619 -77.7694 17° North 414 476 45,000  Level Washington Center
06:19PM 35.2806 -77.6708 34° Northeast 426 490 45,000  Level Washington Center
06:20PM 35.3636 -77.5633 47° Northeast 419 482 45,000  Level Washington Center
06:21PM 35.4550 -77.4661 41° Northeast 424 488 45,000  Level Washington Center
06:22PM 35.5500 -77.3969 31° Northeast 434 499 45,000  Level Washington Center
06:23PM 35.6572 -77.3278 28° Northeast 434 499 45,000  Level Washington Center
06:24PM 35.7628 -77.2583 28° Northeast 429 494 45,000  Level Washington Center
06:25PM 35.8658 -77.1864 29° Northeast 429 494 45,000  Level Washington Center
06:26PM 35.9647 -77.1164 30° Northeast 424 488 45,000  Level Washington Center
06:27PM 36.0700 -77.0517 26° Northeast 412 474 45,000 240 Level Washington Center
06:33PM 36.7736 -76.6619 26° Northeast 437 503 46,800 240 Climbing FlightAware ADS-B
06:34PM 36.8305 -76.6284 25° Northeast 432 497 46,800  Level FlightAware ADS-B
06:34PM 36.8854 -76.5957 25° Northeast 440 506 46,800  Level FlightAware ADS-B
06:35PM 36.9421 -76.5616 26° Northeast 471 542 46,800  Level FlightAware ADS-B
06:35PM 37.0061 -76.5227 26° Northeast 432 497 46,800  Level FlightAware ADS-B
06:36PM 37.0628 -76.4885 26° Northeast 439 505 46,800  Level FlightAware ADS-B
06:36PM 37.1190 -76.4546 26° Northeast 426 490 46,800  Level FlightAware ADS-B
06:39PM 37.3925 -76.3232 21° North 46,800  Level FlightAware ADS-B
06:39PM 37.4513 -76.2982 19° North 416 479 46,800 -180 Level FlightAware ADS-B
06:40PM 37.5188 -76.2758 15° North 448 516 46,600 -840 Descending FlightAware ADS-B
06:40PM 37.5732 -76.2396 28° Northeast 413 475 45,900 -1,380 Descending FlightAware ADS-B
06:41PM 37.6182 -76.1881 42° Northeast 438 504 45,200 -1,440 Descending FlightAware ADS-B
06:41PM 37.6688 -76.1292 43° Northeast 452 520 44,400 -1,500 Descending FlightAware ADS-B
06:45PM 38.0162 -75.8640 31° Northeast 434 499 39,200 -1,560 Descending FlightAware ADS-B
06:45PM 38.0817 -75.8470 12° North 434 499 38,200 -1,260 Descending FlightAware ADS-B
06:46PM 38.1432 -75.8316 11° North 437 503 37,900 -420 Descending FlightAware ADS-B
06:46PM 38.2104 -75.8207 North 505 581 37,800 -900 Descending FlightAware ADS-B
06:47PM 38.2727 -75.8125 North 454 522 37,000 -1,920 Descending FlightAware ADS-B
06:47PM 38.3397 -75.8036 North 436 502 35,800 -2,100 Descending FlightAware ADS-B
06:48PM 38.4201 -75.7929 North 459 528 34,600 -1,920 Descending FlightAware ADS-B
06:49PM 38.4886 -75.7838 North 459 528 33,600 -1,920 Descending FlightAware ADS-B
06:49PM 38.5660 -75.7735 North 465 535 32,400 -1,980 Descending FlightAware ADS-B
06:50PM 38.6392 -75.7637 North 467 537 31,300 -2,100 Descending FlightAware ADS-B
06:50PM 38.7095 -75.7543 North 453 521 30,100 -2,220 Descending FlightAware ADS-B
06:51PM 38.7731 -75.7457 North 441 507 29,000 -2,220 Descending FlightAware ADS-B
06:51PM 38.8390 -75.7369 North 459 528 27,900 -2,160 Descending FlightAware ADS-B
06:52PM 38.9049 -75.7280 North 459 528 26,800 -1,980 Descending FlightAware ADS-B
06:52PM 38.9694 -75.7192 North 471 542 25,900 -1,560 Descending FlightAware ADS-B
06:53PM 39.0321 -75.7168 North 367 422 25,200 -660 Descending FlightAware ADS-B
06:54PM 39.0936 -75.7387 345° North 417 480 25,200  Level FlightAware ADS-B
06:54PM 39.1473 -75.7594 343° North 388 447 25,200  Level FlightAware ADS-B
06:55PM 39.2025 -75.7802 344° North 411 473 25,200 -600 Level FlightAware ADS-B
06:55PM 39.2643 -75.7935 351° North 428 493 24,600 -1,500 Descending FlightAware ADS-B
06:56PM 39.3200 -75.7894 North 387 445 23,600 -2,100 Descending FlightAware ADS-B
06:56PM 39.3755 -75.7707 15° North 395 455 22,500 -2,280 Descending FlightAware ADS-B
06:57PM 39.4261 -75.7507 17° North 376 433 21,300 -2,580 Descending FlightAware ADS-B
06:57PM 39.4809 -75.7290 17° North 361 415 19,900 -2,700 Descending FlightAware ADS-B
06:58PM 39.5362 -75.7071 17° North 408 470 18,600 -2,460 Descending FlightAware ADS-B
06:58PM 39.5917 -75.6851 17° North 377 434 17,400 -2,280 Descending FlightAware ADS-B
06:59PM 39.6468 -75.6631 17° North 421 484 16,300 -2,160 Descending FlightAware ADS-B
06:59PM 39.7001 -75.6420 17° North 381 438 15,200 -2,160 Descending FlightAware ADS-B
07:00PM 39.7525 -75.6210 17° North 362 417 14,100 -1,500 Descending FlightAware ADS-B
07:00PM 39.8011 -75.5930 24° Northeast 366 421 13,700 -420 Descending FlightAware ADS-B
07:01PM 39.8472 -75.5526 34° Northeast 371 427 13,700  Level FlightAware ADS-B
07:01PM 39.8922 -75.5108 35° Northeast 399 459 13,700  Level FlightAware ADS-B
07:02PM 39.9364 -75.4698 35° Northeast 379 436 13,700 -300 Level FlightAware ADS-B
07:02PM 39.9821 -75.4273 35° Northeast 366 421 13,400 -1,380 Descending FlightAware ADS-B
07:03PM 40.0286 -75.3839 36° Northeast 413 475 12,300 -2,340 Descending FlightAware ADS-B
07:03PM 40.0696 -75.3456 36° Northeast 376 433 11,000 -1,800 Descending FlightAware ADS-B
07:04PM 40.1069 -75.2967 45° Northeast 341 392 10,500 -540 Descending FlightAware ADS-B
07:04PM 40.1365 -75.2467 52° Northeast 333 383 10,500  Level FlightAware ADS-B
07:05PM 40.1644 -75.2001 52° Northeast 306 352 10,500 -120 Level FlightAware ADS-B
07:05PM 40.1971 -75.1587 44° Northeast 316 364 10,400 -420 Descending FlightAware ADS-B
07:06PM 40.2200 -75.1080 59° Northeast 314 361 10,100 -900 Descending FlightAware ADS-B
07:06PM 40.2300 -75.0825 63° Northeast 295 339 9,700 -1,440 Descending FlightAware ADS-B
07:06PM 40.2504 -75.0584 42° Northeast 323 372 9,300 -1,800 Descending FlightAware ADS-B
07:07PM 40.2718 -75.0460 24° Northeast 310 357 8,700 -2,340 Descending FlightAware ADS-B
07:07PM 40.2928 -75.0375 17° North 317 365 8,100 -2,160 Descending FlightAware ADS-B
07:07PM 40.3139 -75.0297 16° North 317 365 7,600 -1,380 Descending FlightAware ADS-B
07:07PM 40.3347 -75.0221 16° North 293 337 7,400 -420 Descending FlightAware ADS-B
07:08PM 40.3551 -75.0146 16° North 300 345 7,400 -240 Level FlightAware ADS-B
07:08PM 40.3747 -75.0057 19° North 295 339 7,300 -1,020 Descending FlightAware ADS-B
07:08PM 40.3946 -74.9932 26° Northeast 324 373 6,900 -1,560 Descending FlightAware ADS-B
07:08PM 40.4119 -74.9784 33° Northeast 279 321 6,500 -1,560 Descending FlightAware ADS-B
07:09PM 40.4287 -74.9598 40° Northeast 295 339 6,100 -1,560 Descending FlightAware ADS-B
07:09PM 40.4428 -74.9403 46° Northeast 280 322 5,700 -1,500 Descending FlightAware ADS-B
07:09PM 40.4586 -74.9178 47° Northeast 278 320 5,300 -1,680 Descending FlightAware ADS-B
07:10PM 40.4742 -74.8956 47° Northeast 293 337 4,800 -1,560 Descending FlightAware ADS-B
07:10PM 40.4870 -74.8774 47° Northeast 268 308 4,500 -720 Descending FlightAware ADS-B
07:10PM 40.5194 -74.8315 47° Northeast 283 326 4,200 -360 Descending FlightAware ADS-B
07:11PM 40.5338 -74.8110 47° Northeast 287 330 4,200  Level FlightAware ADS-B
07:11PM 40.5482 -74.7906 47° Northeast 313 360 4,200  Level FlightAware ADS-B
07:11PM 40.5617 -74.7716 47° Northeast 267 307 4,200  Level FlightAware ADS-B
07:11PM 40.5752 -74.7525 47° Northeast 261 300 4,200  Level FlightAware ADS-B
07:12PM 40.5925 -74.7286 46° Northeast 308 354 4,200  Level FlightAware ADS-B
07:12PM 40.6156 -74.7089 33° Northeast 289 333 4,200  Level FlightAware ADS-B
07:12PM 40.6327 -74.6962 29° Northeast 294 338 4,200  Level FlightAware ADS-B
07:13PM 40.6521 -74.6820 29° Northeast 301 346 4,200  Level FlightAware ADS-B
07:13PM 40.6688 -74.6724 24° Northeast 261 300 4,200  Level FlightAware ADS-B
07:13PM 40.6893 -74.6671 11° North 263 303 4,200  Level FlightAware ADS-B
07:13PM 40.7111 -74.6622 10° North 285 328 4,200  Level FlightAware ADS-B
07:14PM 40.7365 -74.6564 10° North 272 313 4,200  Level FlightAware ADS-B
07:14PM 40.7657 -74.6498 10° North 276 318 4,200 -180 Level FlightAware ADS-B
07:20PM 41.0310 -74.2626 48° Northeast 255 293 3,200 -180 Descending FlightAware ADS-B
07:20PM 41.0308 -74.2335 91° East 232 267 3,200 -180 Level FlightAware ADS-B
07:21PM 41.0296 -74.1584 91° East 213 245 3,000 -540 Descending FlightAware ADS-B
07:21PM 41.0292 -74.1354 91° East 227 261 2,600 -1,200 Descending FlightAware ADS-B
07:22PM 41.0287 -74.1111 92° East 208 239 2,300 -660 Descending FlightAware ADS-B
07:22PM 41.0176 -74.0775 114° Southeast 208 239 2,100 -300 Descending FlightAware ADS-B
07:22PM 41.0058 -74.0656 143° Southeast 196 226 2,100  Level FlightAware ADS-B
07:23PM 40.9937 -74.0551 147° Southeast 211 243 2,100 180 Level FlightAware ADS-B
07:23PM 40.9807 -74.0516 169° South 190 219 2,200  Climbing FlightAware ADS-B
07:23PM 40.9682 -74.0505 176° South 171 197 2,100 -240 Descending FlightAware ADS-B
07:23PM 40.9556 -74.0508 181° South 183 211 2,100 -600 Level FlightAware ADS-B
07:24PM 40.9439 -74.0518 184° South 166 191 1,800 -1,020 Descending FlightAware ADS-B
07:24PM 40.9326 -74.0530 185° South 159 183 1,600 -780 Descending FlightAware ADS-B
07:24PM 40.9212 -74.0543 185° South 145 167 1,400 -780 Descending FlightAware ADS-B
07:24PM 40.9106 -74.0552 184° South 153 176 1,200 -780 Descending FlightAware ADS-B
07:25PM 40.8993 -74.0560 183° South 154 177 1,000 -1,020 Descending FlightAware ADS-B
07:25PM 40.8879 -74.0568 183° South 145 167 700 -1,020 Descending FlightAware ADS-B
07:25PM 40.8764 -74.0576 183° South 174 200 500 -780 Descending FlightAware ADS-B